Terminal Aerodrome Forecast
Issued by NWS

Home | Current Version | Previous Version | Text Only | Print | Product List | Glossary On
Versions: 1 2 3 4 5 6 7 8 9 10 11 12 13 14 15
000
FTAK31 PAJN 181700
TAFAJN
TAF
PAJN 181739Z 1818/1918 11015G25KT P6SM -RA SCT015 BKN030 OVC040
     FM182100 12015G25KT P6SM -RA BKN030 OVC050
     FM190800 10012KT 6SM -RA BCFG BKN020 OVC040
     FM191400 10015KT 4SM RA BCFG BKN020 OVC035=

USA.gov is the U.S. government's official web portal to all federal, state and local government web resources and services.